createdAt,value
2023-05-18T00:00:46.352Z,8.12
2023-05-18T00:01:49.116Z,7.51
2023-05-18T00:02:52.122Z,8.37
2023-05-18T00:03:55.117Z,7.93
2023-05-18T00:04:58.473Z,8.24
2023-05-18T00:06:01.133Z,7.72
2023-05-18T00:07:03.931Z,9.28
2023-05-18T00:08:06.571Z,9.86
2023-05-18T00:09:09.337Z,7.67
2023-05-18T00:10:13.048Z,9.03
2023-05-18T00:11:15.827Z,8.62
2023-05-18T00:12:18.597Z,7.68
2023-05-18T00:13:21.572Z,8.88
2023-05-18T00:14:24.646Z,13.07
2023-05-18T00:15:27.972Z,17.21
2023-05-18T00:16:31.066Z,10.08
2023-05-18T00:17:34.205Z,6.72
2023-05-18T00:18:37.275Z,8.80
2023-05-18T00:19:40.339Z,9.94
2023-05-18T00:20:43.528Z,10.60
2023-05-18T00:21:46.394Z,9.49
2023-05-18T00:22:49.390Z,10.68
2023-05-18T00:23:52.462Z,8.55
2023-05-18T00:24:55.538Z,10.82
2023-05-18T00:25:58.720Z,8.35
2023-05-18T00:27:01.697Z,9.16
2023-05-18T00:28:04.677Z,10.39
2023-05-18T00:29:07.667Z,7.77
2023-05-18T00:30:10.527Z,6.88
2023-05-18T00:31:14.129Z,5.92
2023-05-18T00:32:17.091Z,7.67
2023-05-18T00:33:20.172Z,10.50
2023-05-18T00:34:23.066Z,9.38
2023-05-18T00:35:26.129Z,11.25
2023-05-18T00:36:29.527Z,13.03
2023-05-18T00:37:32.398Z,12.95
2023-05-18T00:38:35.577Z,13.12
2023-05-18T00:39:38.442Z,12.74
2023-05-18T00:40:41.428Z,8.48
2023-05-18T00:41:44.625Z,8.45
2023-05-18T00:42:47.488Z,8.63
2023-05-18T00:43:50.359Z,9.39
2023-05-18T00:44:53.433Z,10.69
2023-05-18T00:45:56.461Z,7.70
2023-05-18T00:46:59.500Z,8.72
2023-05-18T00:48:02.571Z,9.31
2023-05-18T00:49:05.444Z,10.07
2023-05-18T00:50:08.416Z,9.69
2023-05-18T00:51:11.505Z,10.26
2023-05-18T00:52:14.681Z,7.60
2023-05-18T00:53:17.560Z,9.63
2023-05-18T00:54:20.428Z,10.08
2023-05-18T00:55:23.204Z,9.49
2023-05-18T00:56:26.320Z,9.27
2023-05-18T00:57:29.264Z,25.21
2023-05-18T00:58:32.242Z,13.45
2023-05-18T00:59:35.144Z,6.15
2023-05-18T01:00:37.904Z,10.32
2023-05-18T01:01:40.889Z,18.28
2023-05-18T01:02:43.796Z,29.38
2023-05-18T01:03:46.612Z,17.51
2023-05-18T01:04:49.386Z,14.37
2023-05-18T01:05:52.155Z,14.30
2023-05-18T01:06:54.931Z,15.65
2023-05-18T01:07:57.812Z,11.24
2023-05-18T01:09:00.474Z,16.02
2023-05-18T01:10:03.246Z,14.50
2023-05-18T01:11:05.992Z,13.58
2023-05-18T01:12:08.689Z,16.91
2023-05-18T01:13:11.877Z,17.33
2023-05-18T01:14:14.761Z,12.50
2023-05-18T01:15:17.741Z,13.01
2023-05-18T01:16:20.915Z,14.00
2023-05-18T01:17:26.786Z,11.62
2023-05-18T01:18:30.133Z,13.02
2023-05-18T01:19:33.109Z,11.20
2023-05-18T01:20:35.984Z,11.48
2023-05-18T01:21:38.965Z,13.65
2023-05-18T01:22:41.940Z,27.89
2023-05-18T01:23:45.124Z,19.24
2023-05-18T01:24:48.078Z,8.59
2023-05-18T01:25:54.051Z,6.84
2023-05-18T01:26:56.920Z,18.58
2023-05-18T01:27:59.901Z,16.96
2023-05-18T01:29:02.984Z,6.62
2023-05-18T01:30:05.994Z,6.62
2023-05-18T01:31:08.999Z,7.13
2023-05-18T01:32:11.908Z,9.75
2023-05-18T01:33:15.261Z,7.02
2023-05-18T01:34:18.067Z,8.16
2023-05-18T01:35:20.948Z,6.82
2023-05-18T01:36:23.430Z,9.71
2023-05-18T01:37:26.175Z,9.30
2023-05-18T01:38:28.954Z,7.67
2023-05-18T01:39:31.938Z,6.15
2023-05-18T01:40:34.804Z,10.07
2023-05-18T01:41:37.572Z,8.53
2023-05-18T01:42:40.243Z,10.83
2023-05-18T01:43:43.121Z,8.73
2023-05-18T01:44:46.198Z,17.93
2023-05-18T01:45:48.869Z,15.11
2023-05-18T01:46:51.629Z,6.73
2023-05-18T01:47:54.680Z,4.68
2023-05-18T01:48:57.387Z,7.48
2023-05-18T01:50:00.501Z,8.66
2023-05-18T01:51:03.142Z,6.33
2023-05-18T01:52:05.815Z,6.25
2023-05-18T01:53:08.600Z,6.00
2023-05-18T01:54:11.353Z,6.78
2023-05-18T01:55:14.247Z,8.42
2023-05-18T01:56:16.998Z,7.82
2023-05-18T01:57:19.697Z,4.84
2023-05-18T01:58:22.443Z,9.95
2023-05-18T01:59:25.218Z,5.45
2023-05-18T02:00:28.191Z,5.92
2023-05-18T02:01:30.979Z,5.53
2023-05-18T02:02:33.801Z,7.91
2023-05-18T02:03:37.227Z,6.38
2023-05-18T02:04:40.205Z,5.52
2023-05-18T02:05:43.380Z,12.18
2023-05-18T02:06:46.664Z,12.74
2023-05-18T02:07:49.460Z,6.48
2023-05-18T02:08:52.208Z,6.99
2023-05-18T02:09:54.985Z,6.74
2023-05-18T02:10:57.861Z,10.92
2023-05-18T02:12:00.640Z,6.70
2023-05-18T02:13:03.504Z,7.05
2023-05-18T02:14:06.376Z,6.58
2023-05-18T02:15:09.149Z,4.68
2023-05-18T02:16:12.112Z,5.08
2023-05-18T02:17:15.216Z,12.30
2023-05-18T02:18:18.395Z,17.48
2023-05-18T02:19:21.413Z,19.99
2023-05-18T02:20:24.656Z,6.22
2023-05-18T02:21:27.630Z,7.26
2023-05-18T02:22:30.607Z,8.65
2023-05-18T02:23:33.586Z,7.81
2023-05-18T02:24:36.988Z,8.61
2023-05-18T02:25:39.947Z,19.76
2023-05-18T02:26:43.251Z,11.83
2023-05-18T02:27:46.200Z,10.42
2023-05-18T02:28:49.281Z,12.37
2023-05-18T02:29:52.359Z,9.10
2023-05-18T02:30:55.444Z,9.08
2023-05-18T02:31:58.567Z,9.69
2023-05-18T02:33:01.672Z,7.85
2023-05-18T02:34:04.726Z,6.74
2023-05-18T02:35:07.777Z,15.29
2023-05-18T02:36:10.853Z,9.94
2023-05-18T02:37:14.129Z,9.22
2023-05-18T02:38:17.000Z,20.10
2023-05-18T02:39:20.071Z,14.72
2023-05-18T02:40:23.159Z,15.94
2023-05-18T02:41:26.133Z,13.82
2023-05-18T02:42:30.441Z,11.22
2023-05-18T02:43:33.312Z,8.06
2023-05-18T02:44:36.292Z,8.33
2023-05-18T02:45:39.419Z,8.48
2023-05-18T02:46:42.354Z,7.07
2023-05-18T02:47:45.452Z,5.37
2023-05-18T02:48:48.409Z,8.09
2023-05-18T02:49:51.590Z,5.90
2023-05-18T02:50:54.569Z,5.68
2023-05-18T02:51:57.451Z,5.96
2023-05-18T02:53:00.642Z,8.84
2023-05-18T02:54:03.610Z,8.15
2023-05-18T02:55:06.490Z,11.87
2023-05-18T02:56:09.352Z,8.38
2023-05-18T02:57:12.331Z,5.52
2023-05-18T02:58:15.108Z,5.52
2023-05-18T02:59:17.882Z,5.32
2023-05-18T03:00:20.655Z,5.68
2023-05-18T03:01:23.474Z,5.28
2023-05-18T03:02:26.298Z,4.01
2023-05-18T03:03:29.228Z,6.80
2023-05-18T03:04:31.938Z,15.61
2023-05-18T03:05:34.817Z,5.44
2023-05-18T03:06:37.691Z,5.52
2023-05-18T03:07:40.900Z,6.67
2023-05-18T03:08:44.155Z,5.85
2023-05-18T03:09:47.127Z,6.16
2023-05-18T03:10:50.106Z,6.48
2023-05-18T03:11:53.112Z,4.39
2023-05-18T03:12:56.063Z,5.25
2023-05-18T03:13:59.157Z,6.48
2023-05-18T03:15:02.131Z,6.44
2023-05-18T03:16:05.101Z,11.15
2023-05-18T03:17:08.121Z,7.18
2023-05-18T03:18:11.153Z,6.08
2023-05-18T03:19:14.411Z,8.32
2023-05-18T03:20:17.417Z,13.18
2023-05-18T03:21:20.300Z,7.01
2023-05-18T03:22:23.171Z,5.79
2023-05-18T03:23:26.137Z,5.49
2023-05-18T03:24:29.325Z,4.82
2023-05-18T03:25:32.494Z,5.32
2023-05-18T03:26:35.581Z,5.30
2023-05-18T03:27:38.558Z,5.48
2023-05-18T03:28:41.542Z,6.22
2023-05-18T03:29:44.734Z,7.16
2023-05-18T03:30:47.601Z,7.49
2023-05-18T03:31:50.724Z,5.89
2023-05-18T03:32:53.688Z,5.72
2023-05-18T03:33:56.627Z,7.17
2023-05-18T03:34:59.914Z,8.23
2023-05-18T03:36:03.396Z,6.90
2023-05-18T03:37:06.383Z,6.55
2023-05-18T03:38:09.251Z,6.63
2023-05-18T03:39:12.328Z,7.82
2023-05-18T03:40:15.515Z,10.59
2023-05-18T03:41:18.498Z,7.77
2023-05-18T03:42:21.367Z,9.11
2023-05-18T03:43:24.243Z,8.39
2023-05-18T03:44:27.226Z,8.28
2023-05-18T03:45:30.587Z,10.04
2023-05-18T03:46:33.829Z,11.21
2023-05-18T03:47:36.828Z,10.23
2023-05-18T03:48:39.746Z,7.02
2023-05-18T03:49:42.723Z,8.63
2023-05-18T03:50:46.139Z,6.62
2023-05-18T03:51:49.082Z,7.05
2023-05-18T03:52:52.164Z,5.52
2023-05-18T03:53:55.344Z,6.95
2023-05-18T03:54:58.119Z,7.01
2023-05-18T03:56:01.100Z,8.49
2023-05-18T03:57:03.873Z,10.28
2023-05-18T03:58:07.457Z,13.69
2023-05-18T03:59:10.457Z,18.74
2023-05-18T04:00:13.214Z,13.52
2023-05-18T04:01:16.287Z,13.13
2023-05-18T04:02:19.316Z,9.00
2023-05-18T04:03:22.471Z,7.72
2023-05-18T04:04:25.241Z,11.25
2023-05-18T04:05:28.473Z,10.35
2023-05-18T04:06:31.786Z,9.16
2023-05-18T04:07:34.661Z,6.97
2023-05-18T04:08:37.538Z,6.62
2023-05-18T04:09:40.409Z,7.17
2023-05-18T04:10:43.695Z,7.12
2023-05-18T04:11:46.777Z,9.44
2023-05-18T04:12:49.869Z,13.19
2023-05-18T04:13:52.846Z,13.41
2023-05-18T04:14:55.821Z,9.08
2023-05-18T04:15:59.015Z,7.83
2023-05-18T04:17:02.269Z,10.61
2023-05-18T04:18:05.663Z,8.15
2023-05-18T04:19:08.774Z,9.66
2023-05-18T04:20:11.834Z,6.49
2023-05-18T04:21:14.794Z,6.72
2023-05-18T04:22:17.666Z,7.60
2023-05-18T04:23:20.646Z,7.85
2023-05-18T04:24:23.727Z,7.89
2023-05-18T04:25:27.014Z,8.22
2023-05-18T04:26:30.090Z,6.84
2023-05-18T04:27:33.067Z,8.28
2023-05-18T04:28:35.936Z,8.88
2023-05-18T04:29:39.032Z,6.48
2023-05-18T04:30:41.906Z,7.56
2023-05-18T04:31:44.964Z,6.93
2023-05-18T04:32:47.976Z,5.76
2023-05-18T04:33:50.931Z,6.04
2023-05-18T04:34:53.806Z,9.73
2023-05-18T04:35:56.675Z,10.57
2023-05-18T04:36:59.655Z,9.78
2023-05-18T04:38:02.823Z,5.55
2023-05-18T04:39:05.812Z,7.32
2023-05-18T04:40:08.899Z,5.92
2023-05-18T04:41:12.076Z,7.83
2023-05-18T04:42:14.949Z,9.75
2023-05-18T04:43:18.041Z,8.75
2023-05-18T04:44:21.006Z,8.59
2023-05-18T04:45:24.098Z,8.44
2023-05-18T04:46:27.159Z,8.66
2023-05-18T04:47:30.243Z,7.48
2023-05-18T04:48:33.539Z,8.70
2023-05-18T04:49:36.607Z,11.46
2023-05-18T04:50:39.482Z,8.90
2023-05-18T04:51:42.454Z,8.22
2023-05-18T04:52:48.697Z,8.05
2023-05-18T04:53:52.301Z,10.72
2023-05-18T04:54:55.296Z,8.45
2023-05-18T04:55:58.261Z,6.80
2023-05-18T04:57:03.899Z,7.65
2023-05-18T04:58:06.676Z,5.75
2023-05-18T04:59:10.915Z,8.56
2023-05-18T05:00:13.858Z,9.25
2023-05-18T05:01:16.691Z,9.92
2023-05-18T05:02:19.480Z,12.67
2023-05-18T05:03:22.245Z,8.30
2023-05-18T05:04:25.247Z,7.73
2023-05-18T05:05:28.055Z,7.66
2023-05-18T05:06:30.793Z,6.05
2023-05-18T05:07:33.466Z,6.55
2023-05-18T05:08:36.250Z,7.95
2023-05-18T05:09:39.009Z,6.63
2023-05-18T05:10:41.672Z,7.12
2023-05-18T05:11:44.549Z,6.92
2023-05-18T05:12:49.465Z,9.07
2023-05-18T05:13:52.041Z,6.46
2023-05-18T05:14:55.122Z,5.48
2023-05-18T05:15:58.030Z,8.82
2023-05-18T05:17:00.967Z,9.98
2023-05-18T05:18:03.983Z,11.16
2023-05-18T05:19:07.192Z,7.53
2023-05-18T05:20:10.206Z,7.75
2023-05-18T05:21:13.181Z,8.09
2023-05-18T05:22:15.953Z,6.84
2023-05-18T05:23:18.797Z,8.61
2023-05-18T05:24:21.617Z,6.81
2023-05-18T05:25:24.576Z,7.29
2023-05-18T05:26:27.355Z,6.40
2023-05-18T05:27:30.018Z,6.22
2023-05-18T05:28:32.690Z,6.59
2023-05-18T05:29:35.875Z,6.96
2023-05-18T05:30:38.755Z,8.25
2023-05-18T05:31:41.487Z,11.28
2023-05-18T05:32:44.321Z,8.64
2023-05-18T05:33:47.062Z,8.44
2023-05-18T05:34:49.836Z,7.90
2023-05-18T05:35:52.609Z,7.69
2023-05-18T05:36:55.380Z,10.54
2023-05-18T05:37:58.048Z,8.06
2023-05-18T05:39:00.839Z,9.08
2023-05-18T05:40:03.613Z,9.45
2023-05-18T05:41:06.474Z,6.03
2023-05-18T05:42:09.057Z,8.42
2023-05-18T05:43:11.814Z,7.29
2023-05-18T05:44:14.478Z,12.25
2023-05-18T05:45:17.250Z,6.35
2023-05-18T05:46:19.943Z,6.08
2023-05-18T05:47:22.698Z,7.66
2023-05-18T05:48:25.369Z,9.12
2023-05-18T05:49:28.137Z,9.57
2023-05-18T05:50:30.813Z,10.57
2023-05-18T05:51:34.292Z,9.56
2023-05-18T05:52:37.183Z,8.14
2023-05-18T05:53:40.249Z,7.72
2023-05-18T05:54:43.138Z,8.49
2023-05-18T05:55:45.802Z,6.25
2023-05-18T05:56:48.780Z,8.65
2023-05-18T05:57:51.553Z,7.90
2023-05-18T05:58:54.326Z,6.79
2023-05-18T05:59:56.996Z,12.01
2023-05-18T06:00:59.758Z,10.12
2023-05-18T06:02:02.795Z,9.60
2023-05-18T06:03:05.811Z,6.15
2023-05-18T06:04:08.799Z,8.65
2023-05-18T06:05:11.777Z,6.98
2023-05-18T06:06:14.670Z,7.36
2023-05-18T06:07:17.933Z,8.50
2023-05-18T06:08:20.908Z,8.65
2023-05-18T06:09:23.881Z,8.92
2023-05-18T06:10:26.762Z,7.84
2023-05-18T06:11:29.627Z,7.02
2023-05-18T06:12:34.152Z,5.17
2023-05-18T06:13:37.121Z,7.84
2023-05-18T06:14:40.097Z,10.56
2023-05-18T06:15:43.075Z,8.87
2023-05-18T06:16:45.887Z,9.13
2023-05-18T06:17:49.075Z,7.86
2023-05-18T06:18:52.062Z,10.34
2023-05-18T06:19:55.003Z,7.50
2023-05-18T06:20:57.964Z,12.59
2023-05-18T06:22:00.937Z,9.85
2023-05-18T06:23:04.126Z,12.73
2023-05-18T06:24:07.099Z,8.41
2023-05-18T06:25:09.972Z,9.38
2023-05-18T06:26:12.954Z,8.26
2023-05-18T06:27:15.927Z,7.53
2023-05-18T06:28:18.905Z,7.14
2023-05-18T06:29:22.192Z,7.29
2023-05-18T06:30:25.165Z,9.45
2023-05-18T06:31:30.176Z,6.05
2023-05-18T06:32:32.768Z,6.54
2023-05-18T06:33:36.038Z,7.15
2023-05-18T06:34:39.126Z,7.45
2023-05-18T06:35:43.972Z,7.67
2023-05-18T06:36:46.822Z,8.42
2023-05-18T06:37:49.800Z,7.93
2023-05-18T06:38:53.003Z,8.70
2023-05-18T06:39:55.956Z,7.94
2023-05-18T06:40:58.835Z,7.91
2023-05-18T06:42:01.957Z,8.85
2023-05-18T06:43:04.890Z,9.07
2023-05-18T06:44:08.084Z,6.59
2023-05-18T06:45:10.763Z,9.48
2023-05-18T06:46:13.579Z,8.53
2023-05-18T06:47:16.282Z,7.77
2023-05-18T06:48:18.956Z,7.99
2023-05-18T06:49:21.727Z,7.21
2023-05-18T06:50:24.504Z,8.02
2023-05-18T06:51:27.270Z,7.74
2023-05-18T06:52:30.044Z,7.80
2023-05-18T06:53:32.820Z,8.50
2023-05-18T06:54:36.400Z,8.25
2023-05-18T06:55:39.485Z,8.29
2023-05-18T06:56:42.255Z,6.02
2023-05-18T06:57:45.333Z,8.65
2023-05-18T06:58:48.314Z,9.98
2023-05-18T06:59:51.396Z,8.21
2023-05-18T07:00:54.292Z,7.68
2023-05-18T07:01:57.379Z,9.35
2023-05-18T07:03:00.662Z,9.37
2023-05-18T07:04:03.655Z,9.04
2023-05-18T07:05:06.605Z,8.53
2023-05-18T07:06:09.460Z,9.50
2023-05-18T07:07:12.443Z,8.78
2023-05-18T07:08:15.486Z,8.00
2023-05-18T07:09:18.397Z,6.78
2023-05-18T07:10:21.369Z,7.29
2023-05-18T07:11:24.360Z,5.92
2023-05-18T07:12:27.215Z,6.07
2023-05-18T07:13:30.201Z,9.32
2023-05-18T07:14:33.075Z,6.70
2023-05-18T07:15:36.383Z,6.92
2023-05-18T07:16:39.314Z,7.55
2023-05-18T07:17:42.337Z,8.29
2023-05-18T07:18:45.367Z,9.57
2023-05-18T07:19:48.277Z,8.64
2023-05-18T07:20:51.384Z,10.50
2023-05-18T07:21:54.330Z,8.95
2023-05-18T07:22:57.717Z,7.97
2023-05-18T07:24:00.694Z,8.76
2023-05-18T07:25:03.556Z,8.67
2023-05-18T07:26:06.848Z,6.25
2023-05-18T07:27:09.739Z,8.38
2023-05-18T07:28:12.601Z,8.52
2023-05-18T07:29:15.570Z,7.85
2023-05-18T07:30:18.543Z,8.53
2023-05-18T07:31:21.909Z,7.45
2023-05-18T07:32:25.013Z,7.66
2023-05-18T07:33:27.990Z,10.01
2023-05-18T07:34:30.869Z,10.65
2023-05-18T07:35:34.017Z,9.06
2023-05-18T07:36:37.242Z,7.99
2023-05-18T07:37:40.211Z,8.36
2023-05-18T07:38:43.084Z,14.23
2023-05-18T07:39:46.156Z,10.10
2023-05-18T07:40:49.150Z,7.25
2023-05-18T07:41:52.217Z,9.86
2023-05-18T07:42:55.190Z,7.69
2023-05-18T07:43:57.987Z,7.07
2023-05-18T07:45:00.631Z,8.20
2023-05-18T07:46:03.512Z,9.12
2023-05-18T07:47:06.680Z,9.45
2023-05-18T07:48:09.511Z,9.58
2023-05-18T07:49:12.761Z,9.00
2023-05-18T07:50:15.826Z,8.22
2023-05-18T07:51:18.801Z,6.83
2023-05-18T07:52:21.996Z,8.85
2023-05-18T07:53:24.976Z,7.80
2023-05-18T07:54:28.051Z,9.47
2023-05-18T07:55:31.402Z,9.85
2023-05-18T07:56:34.412Z,10.18
2023-05-18T07:57:37.604Z,7.36
2023-05-18T07:58:40.870Z,8.99
2023-05-18T07:59:43.952Z,11.55
2023-05-18T08:00:46.927Z,8.15
2023-05-18T08:01:49.959Z,13.45
2023-05-18T08:02:53.508Z,13.42
2023-05-18T08:03:56.634Z,10.25
2023-05-18T08:04:59.554Z,9.68
2023-05-18T08:06:02.532Z,11.58
2023-05-18T08:07:05.508Z,8.08
2023-05-18T08:08:08.397Z,11.88
2023-05-18T08:09:11.372Z,11.43
2023-05-18T08:10:14.244Z,12.27
2023-05-18T08:11:17.111Z,9.43
2023-05-18T08:12:20.088Z,10.98
2023-05-18T08:13:23.274Z,10.59
2023-05-18T08:14:26.376Z,8.38
2023-05-18T08:15:29.581Z,10.38
2023-05-18T08:16:32.754Z,11.74
2023-05-18T08:17:35.722Z,11.11
2023-05-18T08:18:39.033Z,11.69
2023-05-18T08:19:42.184Z,12.43
2023-05-18T08:20:45.245Z,10.76
2023-05-18T08:21:48.212Z,10.48
2023-05-18T08:22:50.981Z,10.08
2023-05-18T08:23:54.057Z,10.79
2023-05-18T08:24:57.034Z,13.30
2023-05-18T08:26:00.148Z,10.88
2023-05-18T08:27:02.994Z,14.81
2023-05-18T08:28:05.976Z,15.22
2023-05-18T08:29:08.947Z,14.45
2023-05-18T08:30:12.022Z,13.03
2023-05-18T08:31:15.179Z,13.10
2023-05-18T08:32:17.957Z,10.38
2023-05-18T08:33:20.944Z,13.64
2023-05-18T08:34:24.074Z,10.93
2023-05-18T08:35:27.112Z,10.89
2023-05-18T08:36:29.986Z,13.26
2023-05-18T08:37:32.877Z,12.43
2023-05-18T08:38:35.838Z,10.78
2023-05-18T08:39:38.819Z,12.16
2023-05-18T08:40:42.097Z,12.12
2023-05-18T08:41:45.087Z,12.47
2023-05-18T08:42:50.395Z,13.54
2023-05-18T08:43:52.167Z,12.49
2023-05-18T08:44:54.929Z,10.83
2023-05-18T08:45:57.802Z,9.12
2023-05-18T08:47:00.573Z,10.15
2023-05-18T08:48:03.414Z,9.56
2023-05-18T08:49:06.239Z,11.48
2023-05-18T08:50:08.896Z,12.11
2023-05-18T08:51:11.560Z,13.89
2023-05-18T08:52:14.335Z,12.66
2023-05-18T08:53:17.004Z,13.06
2023-05-18T08:54:19.781Z,11.05
2023-05-18T08:55:22.460Z,12.12
2023-05-18T08:56:25.223Z,12.33
2023-05-18T08:57:28.095Z,11.02
2023-05-18T08:58:30.864Z,8.94
2023-05-18T08:59:33.632Z,11.62
2023-05-18T09:00:36.490Z,16.42
2023-05-18T09:01:39.219Z,11.64
2023-05-18T09:02:42.185Z,8.52
2023-05-18T09:03:44.931Z,11.61
2023-05-18T09:04:47.668Z,12.67
2023-05-18T09:05:50.381Z,13.45
2023-05-18T09:06:53.253Z,11.57
2023-05-18T09:07:56.144Z,15.88
2023-05-18T09:08:59.449Z,11.58
2023-05-18T09:10:02.413Z,18.61
2023-05-18T09:11:05.366Z,22.85
2023-05-18T09:12:08.139Z,18.24
2023-05-18T09:13:11.119Z,19.96
2023-05-18T09:14:14.094Z,24.77
2023-05-18T09:15:16.961Z,23.18
2023-05-18T09:16:20.284Z,23.48
2023-05-18T09:17:23.415Z,25.05
2023-05-18T09:18:28.354Z,18.07
2023-05-18T09:19:30.813Z,21.89
2023-05-18T09:20:33.788Z,23.06
2023-05-18T09:21:36.871Z,23.78
2023-05-18T09:22:39.855Z,18.45
2023-05-18T09:23:42.831Z,20.48
2023-05-18T09:24:45.815Z,19.50
2023-05-18T09:25:48.778Z,21.59
2023-05-18T09:26:51.875Z,18.44
2023-05-18T09:27:54.737Z,22.85
2023-05-18T09:28:57.724Z,19.55
2023-05-18T09:30:00.686Z,17.62
2023-05-18T09:31:03.673Z,11.69
2023-05-18T09:32:07.017Z,17.75
2023-05-18T09:33:10.223Z,15.87
2023-05-18T09:34:13.314Z,13.81
2023-05-18T09:35:16.213Z,15.77
2023-05-18T09:36:19.068Z,12.04
2023-05-18T09:37:22.282Z,11.82
2023-05-18T09:38:25.121Z,12.29
2023-05-18T09:39:28.301Z,13.18
2023-05-18T09:40:31.391Z,11.46
2023-05-18T09:41:34.373Z,15.92
2023-05-18T09:42:37.541Z,15.70
2023-05-18T09:43:40.411Z,12.61
2023-05-18T09:44:44.517Z,13.92
2023-05-18T09:45:47.595Z,15.16
2023-05-18T09:46:50.529Z,12.65
2023-05-18T09:47:53.739Z,13.05
2023-05-18T09:48:56.732Z,8.77
2023-05-18T09:50:00.118Z,10.38
2023-05-18T09:51:03.099Z,9.58
2023-05-18T09:52:06.178Z,15.09
2023-05-18T09:53:09.777Z,12.15
2023-05-18T09:54:12.741Z,9.64
2023-05-18T09:55:15.734Z,10.92
2023-05-18T09:56:18.800Z,13.96
2023-05-18T09:57:21.709Z,9.26
2023-05-18T09:58:24.758Z,9.33
2023-05-18T09:59:27.735Z,9.62
2023-05-18T10:00:30.507Z,10.08
2023-05-18T10:01:33.685Z,7.44
2023-05-18T10:02:36.928Z,13.08
2023-05-18T10:03:39.951Z,8.02
2023-05-18T10:04:43.262Z,9.62
2023-05-18T10:05:46.314Z,8.29
2023-05-18T10:06:49.288Z,8.85
2023-05-18T10:07:52.366Z,11.55
2023-05-18T10:08:55.558Z,13.25
2023-05-18T10:09:58.434Z,12.25
2023-05-18T10:11:01.408Z,9.78
2023-05-18T10:12:04.172Z,12.45
2023-05-18T10:13:07.159Z,9.52
2023-05-18T10:14:10.354Z,8.38
2023-05-18T10:15:13.228Z,11.85
2023-05-18T10:16:16.131Z,12.64
2023-05-18T10:17:19.209Z,13.81
2023-05-18T10:18:22.163Z,12.27
2023-05-18T10:19:25.555Z,11.24
2023-05-18T10:20:28.514Z,11.22
2023-05-18T10:21:31.799Z,9.13
2023-05-18T10:22:34.763Z,9.08
2023-05-18T10:23:37.682Z,11.18
2023-05-18T10:24:40.412Z,10.72
2023-05-18T10:25:43.288Z,10.87
2023-05-18T10:26:46.165Z,9.78
2023-05-18T10:27:49.053Z,9.25
2023-05-18T10:28:51.811Z,9.75
2023-05-18T10:29:54.790Z,14.25
2023-05-18T10:30:57.826Z,9.58
2023-05-18T10:32:02.612Z,11.15
2023-05-18T10:33:09.150Z,11.23
2023-05-18T10:34:09.768Z,9.60
2023-05-18T10:35:12.953Z,11.35
2023-05-18T10:36:16.028Z,12.08
2023-05-18T10:37:18.804Z,10.05
2023-05-18T10:38:21.716Z,9.46
2023-05-18T10:39:24.549Z,8.42
2023-05-18T10:40:27.629Z,9.78
2023-05-18T10:41:30.326Z,13.80
2023-05-18T10:42:33.180Z,10.47
2023-05-18T10:43:36.257Z,11.98
2023-05-18T10:44:39.338Z,9.35
2023-05-18T10:45:42.411Z,9.49
2023-05-18T10:46:45.495Z,11.55
2023-05-18T10:47:48.572Z,10.15
2023-05-18T10:48:51.548Z,9.44
2023-05-18T10:49:54.526Z,8.88
2023-05-18T10:50:57.699Z,8.89
2023-05-18T10:52:00.680Z,9.20
2023-05-18T10:53:03.873Z,8.19
2023-05-18T10:54:06.739Z,9.26
2023-05-18T10:55:09.718Z,8.86
2023-05-18T10:56:12.801Z,8.59
2023-05-18T10:57:15.775Z,12.37
2023-05-18T10:58:18.751Z,9.88
2023-05-18T10:59:21.743Z,9.40
2023-05-18T11:00:24.502Z,9.27
2023-05-18T11:01:27.742Z,7.02
2023-05-18T11:02:30.676Z,7.11
2023-05-18T11:03:33.640Z,8.99
2023-05-18T11:04:36.710Z,6.49
2023-05-18T11:05:39.589Z,8.74
2023-05-18T11:06:42.791Z,8.83
2023-05-18T11:07:45.439Z,9.29
2023-05-18T11:08:48.728Z,10.79
2023-05-18T11:09:51.392Z,7.17
2023-05-18T11:10:54.182Z,7.53
2023-05-18T11:11:57.039Z,10.32
2023-05-18T11:12:59.824Z,13.28
2023-05-18T11:14:02.662Z,12.23
2023-05-18T11:15:05.258Z,14.43
2023-05-18T11:16:08.015Z,8.32
2023-05-18T11:17:10.906Z,10.66
2023-05-18T11:18:14.045Z,9.55
2023-05-18T11:19:16.782Z,9.49
2023-05-18T11:20:19.523Z,11.83
2023-05-18T11:21:22.292Z,10.54
2023-05-18T11:22:25.070Z,10.69
2023-05-18T11:23:27.733Z,12.68
2023-05-18T11:24:30.315Z,9.69
2023-05-18T11:25:32.976Z,10.28
2023-05-18T11:26:35.748Z,8.52
2023-05-18T11:27:38.834Z,10.83
2023-05-18T11:28:41.807Z,12.77
2023-05-18T11:29:44.787Z,9.71
2023-05-18T11:30:47.764Z,11.61
2023-05-18T11:31:50.561Z,9.71
2023-05-18T11:32:53.718Z,12.24
2023-05-18T11:33:56.589Z,13.73
2023-05-18T11:34:59.575Z,10.04
2023-05-18T11:36:02.475Z,9.48
2023-05-18T11:37:08.636Z,12.70
2023-05-18T11:38:11.573Z,13.98
2023-05-18T11:39:14.550Z,12.82
2023-05-18T11:40:17.522Z,12.12
2023-05-18T11:41:20.500Z,13.62
2023-05-18T11:42:23.477Z,13.45
2023-05-18T11:43:26.863Z,12.51
2023-05-18T11:44:29.864Z,15.47
2023-05-18T11:45:32.641Z,12.85
2023-05-18T11:46:35.595Z,12.35
2023-05-18T11:47:38.595Z,12.71
2023-05-18T11:48:44.251Z,11.82
2023-05-18T11:49:47.183Z,11.48
2023-05-18T11:50:50.063Z,10.88
2023-05-18T11:51:53.035Z,12.08
2023-05-18T11:52:56.320Z,13.02
2023-05-18T11:53:59.293Z,12.09
2023-05-18T11:55:02.094Z,9.38
2023-05-18T11:56:04.938Z,10.82
2023-05-18T11:57:08.031Z,10.70
2023-05-18T11:58:10.894Z,11.67
2023-05-18T11:59:13.782Z,10.49
2023-05-18T12:00:16.759Z,13.87
2023-05-18T12:01:19.722Z,12.00
2023-05-18T12:02:23.808Z,13.46
2023-05-18T12:03:26.923Z,9.46
2023-05-18T12:04:29.835Z,13.74
2023-05-18T12:05:32.565Z,14.22
2023-05-18T12:06:35.326Z,10.54
2023-05-18T12:07:38.097Z,10.17
2023-05-18T12:08:40.883Z,13.34
2023-05-18T12:09:43.434Z,13.47
2023-05-18T12:10:46.213Z,16.28
2023-05-18T12:11:48.982Z,12.17
2023-05-18T12:12:51.665Z,11.92
2023-05-18T12:13:54.525Z,12.15
2023-05-18T12:14:57.300Z,12.85
2023-05-18T12:16:00.072Z,13.79
2023-05-18T12:17:02.861Z,15.53
2023-05-18T12:18:05.784Z,14.12
2023-05-18T12:19:08.417Z,11.88
2023-05-18T12:20:11.442Z,11.03
2023-05-18T12:21:14.142Z,14.59
2023-05-18T12:22:17.013Z,16.76
2023-05-18T12:23:19.788Z,13.74
2023-05-18T12:24:22.448Z,18.66
2023-05-18T12:25:25.125Z,13.19
2023-05-18T12:26:27.991Z,14.49
2023-05-18T12:27:31.091Z,12.64
2023-05-18T12:28:34.065Z,12.50
2023-05-18T12:29:37.348Z,13.78
2023-05-18T12:30:40.350Z,11.20
2023-05-18T12:31:43.125Z,11.39
2023-05-18T12:32:46.136Z,12.35
2023-05-18T12:33:49.038Z,15.42
2023-05-18T12:34:52.013Z,9.94
2023-05-18T12:35:55.210Z,10.57
2023-05-18T12:36:58.179Z,12.49
2023-05-18T12:38:01.052Z,12.35
2023-05-18T12:39:04.134Z,15.19
2023-05-18T12:40:07.216Z,10.24
2023-05-18T12:41:10.314Z,9.59
2023-05-18T12:42:13.167Z,9.45
2023-05-18T12:43:16.139Z,9.23
2023-05-18T12:44:19.117Z,10.56
2023-05-18T12:45:22.003Z,10.92
2023-05-18T12:46:25.294Z,10.86
2023-05-18T12:47:28.185Z,11.03
2023-05-18T12:48:31.130Z,11.72
2023-05-18T12:49:34.012Z,7.42
2023-05-18T12:50:36.577Z,10.42
2023-05-18T12:51:39.365Z,11.23
2023-05-18T12:52:42.116Z,11.25
2023-05-18T12:53:44.886Z,10.59
2023-05-18T12:54:47.761Z,8.48
2023-05-18T12:55:50.537Z,9.22
2023-05-18T12:56:53.301Z,10.62
2023-05-18T12:57:55.976Z,9.27
2023-05-18T12:58:58.754Z,7.88
2023-05-18T13:00:01.418Z,6.03
2023-05-18T13:01:04.194Z,9.05
2023-05-18T13:02:06.963Z,10.46
2023-05-18T13:03:13.543Z,9.35
2023-05-18T13:04:13.913Z,9.63
2023-05-18T13:05:16.714Z,7.92
2023-05-18T13:06:19.396Z,6.87
2023-05-18T13:07:22.267Z,8.33
2023-05-18T13:08:25.141Z,9.57
2023-05-18T13:09:27.915Z,8.22
2023-05-18T13:10:30.783Z,7.39
2023-05-18T13:11:33.659Z,7.17
2023-05-18T13:12:36.642Z,10.46
2023-05-18T13:13:39.625Z,9.88
2023-05-18T13:14:42.246Z,8.75
2023-05-18T13:15:45.052Z,10.10
2023-05-18T13:16:47.976Z,9.35
2023-05-18T13:17:51.056Z,9.42
2023-05-18T13:18:54.115Z,10.82
2023-05-18T13:19:57.062Z,10.72
2023-05-18T13:21:00.056Z,12.67
2023-05-18T13:22:03.016Z,7.96
2023-05-18T13:23:06.107Z,9.53
2023-05-18T13:24:09.893Z,8.33
2023-05-18T13:25:12.883Z,8.11
2023-05-18T13:26:15.757Z,6.31
2023-05-18T13:27:18.616Z,6.56
2023-05-18T13:28:22.004Z,7.62
2023-05-18T13:29:25.403Z,7.56
2023-05-18T13:30:28.540Z,6.88
2023-05-18T13:31:31.732Z,8.70
2023-05-18T13:32:34.679Z,6.35
2023-05-18T13:33:38.029Z,10.11
2023-05-18T13:34:41.229Z,6.90
2023-05-18T13:35:44.077Z,6.94
2023-05-18T13:36:46.954Z,7.21
2023-05-18T13:37:49.827Z,6.68
2023-05-18T13:38:53.001Z,9.97
2023-05-18T13:39:55.982Z,8.51
2023-05-18T13:40:58.857Z,7.75
2023-05-18T13:42:01.630Z,7.75
2023-05-18T13:43:04.605Z,10.08
2023-05-18T13:44:07.687Z,9.56
2023-05-18T13:45:10.667Z,7.60
2023-05-18T13:46:13.891Z,7.38
2023-05-18T13:47:16.613Z,6.71